Norsul Tubarao — 3FJV6 — position and weather

sailwx.info

Track history (hours):
 
Tides and Currents Weather Stations Pressure Air Temp Water Temp Dewpoint Dewpoint Depression Visibility Wind Speed Wind Dir Waves Ship Positions

Norsul Tubarao

Last reported at 2017-Dec-18 08:46 UTC. Time now 2018-Jan-19 09:54 UTC.
Position N 01°17' E 103°22'.
Warning: this ship's position is 32 days out of date.

Length 175 m; draft 7.3 m.

Type: Cargo ship. MMSI: 373182000.

Date/timePositionNaut miles runAvg speedWind from/ knotsBaromVisibWave heightAir tempDewpointWater temp
2017-Dec-18 08:46N 01°17' E 103°22'312.2
2017-Dec-18 08:30N 01°15' E 103°24'713.7
2017-Dec-18 08:00N 01°12' E 103°31'714.2
2017-Dec-18 07:30N 01°11' E 103°38'713.4
2017-Dec-18 07:00N 01°08' E 103°44'611.8
2017-Dec-18 06:30N 01°11' E 103°49'612.3
2017-Dec-18 06:00N 01°13' E 103°55'612.0
2017-Dec-18 05:30N 01°15' E 104°00'612.0
2017-Dec-18 04:59N 01°17' E 104°06'2 5.2
2017-Dec-18 04:30N 01°19' E 104°05'1 1.1
2017-Dec-18 03:41N 01°18' E 104°04'0 0.2
2017-Dec-18 03:23N 01°18' E 104°04'0 0.1
2017-Dec-18 02:38N 01°18' E 104°04'0 0.0
2017-Dec-18 02:20N 01°18' E 104°04'0 0.0
2017-Dec-18 01:53N 01°18' E 104°04'0 0.0
2017-Dec-18 01:20N 01°18' E 104°04'0 0.0
2017-Dec-18 00:47N 01°18' E 104°04'0 0.2
2017-Dec-18 00:29N 01°18' E 104°04'0 0.1
2017-Dec-17 23:56N 01°18' E 104°04'0 0.0
2017-Dec-17 23:26N 01°18' E 104°04'0 0.1
2017-Dec-17 22:53N 01°18' E 104°04'0 0.0
2017-Dec-17 22:23N 01°18' E 104°04'0 0.0
2017-Dec-17 21:56N 01°18' E 104°04'0 0.0
2017-Dec-17 21:29N 01°18' E 104°04'0 0.1
2017-Dec-17 20:53N 01°18' E 104°04'0 0.0
2017-Dec-17 20:29N 01°18' E 104°04'0 0.0
2017-Dec-17 19:53N 01°18' E 104°04'0 0.0
2017-Dec-17 19:29N 01°18' E 104°04'0 0.0
2017-Dec-17 15:32N 01°18' E 104°04'0 0.0
2017-Dec-17 15:14N 01°18' E 104°04'0 0.0
2017-Dec-17 14:14N 01°18' E 104°04'0 0.0
2017-Dec-17 10:11N 01°18' E 104°04'0 0.2
2017-Dec-17 09:50N 01°18' E 104°04'0 0.1
2017-Dec-17 09:23N 01°18' E 104°04'0 0.1
2017-Dec-17 08:50N 01°18' E 104°04'0 0.1
2017-Dec-17 08:29N 01°18' E 104°04'0 0.2
2017-Dec-17 07:56N 01°18' E 104°04'0 1.0
2017-Dec-17 07:30N 01°18' E 104°05'2 4.3
2017-Dec-17 07:00N 01°17' E 104°06'2 4.5
2017-Dec-17 06:29N 01°17' E 104°09'2 5.0
2017-Dec-17 06:00N 01°17' E 104°11'2 4.9
2017-Dec-17 05:30N 01°18' E 104°14'4 4.4
2017-Dec-17 04:32N 01°19' E 104°18'1 4.4
2017-Dec-17 04:18N 01°19' E 104°19'2 4.4
2017-Dec-17 03:53N 01°20' E 104°20'3 7.2
2017-Dec-17 03:28N 01°22' E 104°23'  
2017-Dec-10 16:52N 22°35' E 122°21'1214.3
2017-Dec-10 16:04N 22°45' E 122°26'214.4
2017-Dec-10 15:57N 22°46' E 122°27'6414.6
2017-Dec-10 11:35N 23°44' E 122°58'116.1
2017-Dec-10 11:30N 23°45' E 122°58'  
Track history (hours):
 
Tides and Currents Weather Stations Pressure Air Temp Water Temp Dewpoint Dewpoint Depression Visibility Wind Speed Wind Dir Waves Ship Positions

Norsul Tubarao

Last reported at 2017-Dec-18 08:46 UTC. Time now 2018-Jan-19 09:54 UTC.
Position N 01°17' E 103°22'.
Warning: this ship's position is 32 days out of date.

Length 175 m; draft 7.3 m.

Type: Cargo ship. MMSI: 373182000.

Date/timePositionNaut miles runAvg speedWind from/ knotsBaromVisibWave heightAir tempDewpointWater temp
2017-Dec-18 08:46N 01°17' E 103°22'312.2
2017-Dec-18 08:30N 01°15' E 103°24'713.7
2017-Dec-18 08:00N 01°12' E 103°31'714.2
2017-Dec-18 07:30N 01°11' E 103°38'713.4
2017-Dec-18 07:00N 01°08' E 103°44'611.8
2017-Dec-18 06:30N 01°11' E 103°49'612.3
2017-Dec-18 06:00N 01°13' E 103°55'612.0
2017-Dec-18 05:30N 01°15' E 104°00'612.0
2017-Dec-18 04:59N 01°17' E 104°06'2 5.2
2017-Dec-18 04:30N 01°19' E 104°05'1 1.1
2017-Dec-18 03:41N 01°18' E 104°04'0 0.2
2017-Dec-18 03:23N 01°18' E 104°04'0 0.1
2017-Dec-18 02:38N 01°18' E 104°04'0 0.0
2017-Dec-18 02:20N 01°18' E 104°04'0 0.0
2017-Dec-18 01:53N 01°18' E 104°04'0 0.0
2017-Dec-18 01:20N 01°18' E 104°04'0 0.0
2017-Dec-18 00:47N 01°18' E 104°04'0 0.2
2017-Dec-18 00:29N 01°18' E 104°04'0 0.1
2017-Dec-17 23:56N 01°18' E 104°04'0 0.0
2017-Dec-17 23:26N 01°18' E 104°04'0 0.1
2017-Dec-17 22:53N 01°18' E 104°04'0 0.0
2017-Dec-17 22:23N 01°18' E 104°04'0 0.0
2017-Dec-17 21:56N 01°18' E 104°04'0 0.0
2017-Dec-17 21:29N 01°18' E 104°04'0 0.1
2017-Dec-17 20:53N 01°18' E 104°04'0 0.0
2017-Dec-17 20:29N 01°18' E 104°04'0 0.0
2017-Dec-17 19:53N 01°18' E 104°04'0 0.0
2017-Dec-17 19:29N 01°18' E 104°04'0 0.0
2017-Dec-17 15:32N 01°18' E 104°04'0 0.0
2017-Dec-17 15:14N 01°18' E 104°04'0 0.0
2017-Dec-17 14:14N 01°18' E 104°04'0 0.0
2017-Dec-17 10:11N 01°18' E 104°04'0 0.2
2017-Dec-17 09:50N 01°18' E 104°04'0 0.1
2017-Dec-17 09:23N 01°18' E 104°04'0 0.1
2017-Dec-17 08:50N 01°18' E 104°04'0 0.1
2017-Dec-17 08:29N 01°18' E 104°04'0 0.2
2017-Dec-17 07:56N 01°18' E 104°04'0 1.0
2017-Dec-17 07:30N 01°18' E 104°05'2 4.3
2017-Dec-17 07:00N 01°17' E 104°06'2 4.5
2017-Dec-17 06:29N 01°17' E 104°09'2 5.0
2017-Dec-17 06:00N 01°17' E 104°11'2 4.9
2017-Dec-17 05:30N 01°18' E 104°14'4 4.4
2017-Dec-17 04:32N 01°19' E 104°18'1 4.4
2017-Dec-17 04:18N 01°19' E 104°19'2 4.4
2017-Dec-17 03:53N 01°20' E 104°20'3 7.2
2017-Dec-17 03:28N 01°22' E 104°23'  
2017-Dec-10 16:52N 22°35' E 122°21'1214.3
2017-Dec-10 16:04N 22°45' E 122°26'214.4
2017-Dec-10 15:57N 22°46' E 122°27'6414.6
2017-Dec-10 11:35N 23°44' E 122°58'116.1
2017-Dec-10 11:30N 23°45' E 122°58'  

Dump ship's entire track history